Time;durP1;ratioP1;P1;durP2;ratioP2;P2;SDS_P1;SDS_P2;PMS_P1;PMS_P2;Temp;Humidity;BMP_temperature;BMP_pressure;BME280_temperature;BME280_humidity;BME280_pressure;Samples;Min_cycle;Max_cycle;Signal;HPM_P1;HPM_P2
2021/06/19 00:00:12;;;;;;;2.92;1.60;;;;;;;19.71;78.03;97775.28;1725517;83;21043;-63
2021/06/19 00:02:41;;;;;;;4.00;1.67;;;;;;;19.70;78.42;97774.16;1725250;83;21090;-66
2021/06/19 00:05:10;;;;;;;3.70;1.92;;;;;;;19.70;79.77;97778.11;1725115;83;21126;-61
2021/06/19 00:07:38;;;;;;;2.65;2.05;;;;;;;19.69;78.85;97772.03;1725678;83;21121;-65
2021/06/19 00:10:07;;;;;;;2.90;1.95;;;;;;;19.67;78.81;97770.13;1721272;83;21123;-62
2021/06/19 00:12:34;;;;;;;1.85;1.62;;;;;;;19.64;79.88;97772.36;1695366;84;21073;-63
2021/06/19 00:15:08;;;;;;;3.92;1.40;;;;;;;19.63;78.97;97775.99;1714575;84;21095;-63
2021/06/19 00:17:36;;;;;;;2.55;1.50;;;;;;;19.62;79.53;97780.95;1715852;83;21058;-63
2021/06/19 00:20:11;;;;;;;3.90;1.47;;;;;;;19.61;78.93;97771.45;1715949;84;21110;-64
2021/06/19 00:22:38;;;;;;;2.08;1.50;;;;;;;19.59;79.41;97772.15;1715232;83;21098;-62
2021/06/19 00:25:09;;;;;;;1.52;1.40;;;;;;;19.57;79.44;97780.24;1715954;84;21050;-63
2021/06/19 00:27:37;;;;;;;2.12;1.50;;;;;;;19.57;79.52;97772.88;1715927;84;21035;-64
2021/06/19 00:30:07;;;;;;;2.42;1.47;;;;;;;19.58;79.70;97781.05;1715933;84;21087;-63
2021/06/19 00:32:35;;;;;;;3.77;1.40;;;;;;;19.59;79.68;97781.37;1716028;84;21463;-62
2021/06/19 00:35:05;;;;;;;2.08;1.50;;;;;;;19.62;79.01;97778.32;1715823;83;21042;-63
2021/06/19 00:37:34;;;;;;;2.20;1.40;;;;;;;19.62;78.44;97777.00;1715953;84;21082;-62
2021/06/19 00:40:04;;;;;;;1.55;1.20;;;;;;;19.58;79.57;97776.60;1715205;83;21043;-63
2021/06/19 00:42:31;;;;;;;2.40;1.55;;;;;;;19.55;80.02;97777.52;1715897;83;21509;-65
2021/06/19 00:44:59;;;;;;;1.50;1.30;;;;;;;19.56;79.15;97776.01;1715967;83;21649;-65
2021/06/19 00:47:26;;;;;;;2.35;1.20;;;;;;;19.11;79.68;97707.83;1715954;84;21035;-64
2021/06/19 00:49:54;;;;;;;2.77;1.47;;;;;;;19.50;79.33;97771.54;1715678;84;21150;-65
2021/06/19 00:52:21;;;;;;;1.77;1.25;;;;;;;19.44;78.92;97772.36;1715922;84;21039;-63
2021/06/19 00:54:48;;;;;;;1.62;1.10;;;;;;;19.34;78.93;97775.86;1715623;84;21520;-63
2021/06/19 00:57:16;;;;;;;2.65;1.75;;;;;;;19.29;78.60;97768.59;1715913;84;21070;-64
2021/06/19 00:59:44;;;;;;;1.95;1.37;;;;;;;19.22;79.06;97765.66;1715793;84;21027;-65
2021/06/19 01:02:11;;;;;;;2.00;1.45;;;;;;;19.15;79.54;97766.13;1715801;84;21035;-64
2021/06/19 01:04:38;;;;;;;2.30;1.50;;;;;;;19.08;79.85;97773.22;1715842;84;21047;-63
2021/06/19 01:07:05;;;;;;;2.52;1.37;;;;;;;19.02;80.57;97769.58;1716069;84;21047;-62
2021/06/19 01:09:32;;;;;;;3.25;1.12;;;;;;;18.93;81.24;97774.22;1715594;83;21150;-62
2021/06/19 01:11:59;;;;;;;1.37;1.27;;;;;;;18.86;81.45;97773.41;1716402;84;21126;-65
2021/06/19 01:14:26;;;;;;;2.60;1.22;;;;;;;18.87;80.57;97775.00;1715935;84;21019;-65
2021/06/19 01:16:53;;;;;;;1.77;1.35;;;;;;;18.83;81.26;97772.99;1716213;84;21007;-65
2021/06/19 01:19:20;;;;;;;2.47;1.20;;;;;;;18.80;80.97;97774.18;1716182;84;21070;-63
2021/06/19 01:21:52;;;;;;;1.87;1.10;;;;;;;18.79;80.22;97773.08;1715970;83;21055;-65
2021/06/19 01:24:21;;;;;;;3.40;1.42;;;;;;;18.76;80.35;97774.27;1716141;84;21531;-63
2021/06/19 01:26:48;;;;;;;2.12;1.30;;;;;;;18.78;79.90;97778.03;1715728;83;21036;-64
2021/06/19 01:29:15;;;;;;;2.20;1.20;;;;;;;18.75;79.59;97783.70;1715715;84;21067;-63
2021/06/19 01:31:42;;;;;;;2.77;1.47;;;;;;;18.70;79.47;97779.02;1716012;84;21134;-65
2021/06/19 01:34:09;;;;;;;1.40;1.30;;;;;;;18.71;79.60;97779.34;1716009;84;21095;-65
2021/06/19 01:36:36;;;;;;;2.00;1.50;;;;;;;18.70;79.35;97776.89;1716084;84;21018;-63
2021/06/19 01:39:04;;;;;;;1.80;1.27;;;;;;;18.69;79.09;97773.45;1715984;83;21052;-65
2021/06/19 01:41:32;;;;;;;3.40;1.20;;;;;;;18.61;79.33;97773.63;1716442;83;21054;-64
2021/06/19 01:44:06;;;;;;;2.17;1.70;;;;;;;18.48;81.53;97782.24;1716117;84;21075;-65
2021/06/19 01:46:36;;;;;;;2.33;1.22;;;;;;;18.36;81.72;97774.64;1716179;83;21495;-64
2021/06/19 01:49:04;;;;;;;10.32;1.52;;;;;;;18.36;80.97;97778.58;1716263;84;20988;-63
2021/06/19 01:51:31;;;;;;;3.10;2.12;;;;;;;18.34;81.10;97767.44;1715961;84;21045;-65
2021/06/19 01:53:59;;;;;;;2.72;1.27;;;;;;;18.30;82.00;97769.33;1716324;84;21494;-62
2021/06/19 01:56:26;;;;;;;2.10;1.60;;;;;;;18.30;82.47;97771.46;1715690;84;21123;-67
2021/06/19 01:58:53;;;;;;;2.27;1.62;;;;;;;18.25;82.48;97773.86;1716181;84;21519;-63
2021/06/19 02:01:21;;;;;;;1.62;1.30;;;;;;;18.22;82.51;97774.25;1715908;84;21499;-65
2021/06/19 02:03:49;;;;;;;2.65;1.35;;;;;;;18.18;82.36;97776.15;1715908;84;21008;-65
2021/06/19 02:06:16;;;;;;;2.33;1.40;;;;;;;18.11;82.48;97773.50;1716084;84;21507;-63
2021/06/19 02:09:04;;;;;;;1.72;1.37;;;;;;;18.07;82.54;97773.58;1715794;84;21051;-68
2021/06/19 02:11:31;;;;;;;2.83;1.52;;;;;;;18.04;82.55;97767.41;1716043;83;21055;-63
2021/06/19 02:13:58;;;;;;;1.70;1.37;;;;;;;18.01;82.32;97768.58;1716111;84;21078;-63
2021/06/19 02:16:24;;;;;;;1.57;1.20;;;;;;;17.99;82.08;97765.85;1716012;84;21039;-63
2021/06/19 02:18:51;;;;;;;1.57;1.05;;;;;;;17.95;83.38;97765.43;1715749;84;21011;-63
2021/06/19 02:21:18;;;;;;;2.33;1.60;;;;;;;17.95;82.66;97760.17;1716021;84;21004;-63
2021/06/19 02:23:45;;;;;;;2.17;1.27;;;;;;;17.96;82.36;97761.80;1715703;84;21647;-63
2021/06/19 02:26:13;;;;;;;2.62;1.80;;;;;;;17.97;82.04;97763.44;1716119;84;21043;-61
2021/06/19 02:28:40;;;;;;;3.83;1.25;;;;;;;17.97;82.04;97762.13;1716243;84;21066;-61
2021/06/19 02:31:08;;;;;;;2.00;1.22;;;;;;;17.94;82.21;97761.67;1715989;84;21014;-64
2021/06/19 02:33:36;;;;;;;2.17;1.27;;;;;;;17.92;81.97;97767.14;1715754;84;21111;-64
2021/06/19 02:36:04;;;;;;;1.17;1.07;;;;;;;17.87;82.35;97762.95;1716013;83;21448;-65
2021/06/19 02:38:31;;;;;;;1.77;1.17;;;;;;;17.85;82.29;97764.98;1716045;84;21067;-63
2021/06/19 02:40:58;;;;;;;2.30;1.50;;;;;;;17.81;82.00;97763.74;1716219;84;21051;-63
2021/06/19 02:43:24;;;;;;;2.98;1.40;;;;;;;17.80;81.88;97768.67;1715623;84;21088;-62
2021/06/19 02:45:52;;;;;;;3.83;1.40;;;;;;;17.81;81.77;97772.12;1715997;83;21047;-65
2021/06/19 02:48:19;;;;;;;2.45;1.47;;;;;;;17.81;81.79;97777.38;1716089;84;21012;-64
2021/06/19 02:50:46;;;;;;;2.02;1.60;;;;;;;17.75;82.98;97775.00;1716139;83;21105;-61
2021/06/19 02:53:13;;;;;;;1.87;1.17;;;;;;;17.75;83.00;97781.56;1715916;83;21059;-63
2021/06/19 02:55:44;;;;;;;2.30;1.10;;;;;;;17.71;83.51;97775.57;1716008;83;21015;-63
2021/06/19 02:58:13;;;;;;;1.30;1.07;;;;;;;17.66;82.90;97777.48;1715962;84;21016;-63
2021/06/19 03:00:41;;;;;;;2.62;1.35;;;;;;;17.62;82.63;97772.80;1715886;84;20987;-62
2021/06/19 03:03:08;;;;;;;2.00;1.27;;;;;;;17.57;82.68;97774.69;1715723;84;21039;-63
2021/06/19 03:05:37;;;;;;;2.35;1.32;;;;;;;17.53;82.86;97775.54;1715994;83;21083;-65
2021/06/19 03:08:06;;;;;;;3.42;1.00;;;;;;;17.47;83.43;97767.59;1716007;84;21114;-65
2021/06/19 03:10:38;;;;;;;1.60;1.20;;;;;;;17.41;83.83;97770.98;1718189;83;21582;-63
2021/06/19 03:13:06;;;;;;;1.30;1.07;;;;;;;17.38;84.16;97770.06;1725532;83;21669;-62
2021/06/19 03:15:33;;;;;;;2.08;1.42;;;;;;;17.38;84.19;97772.69;1725702;83;21046;-60
2021/06/19 03:18:00;;;;;;;1.40;1.22;;;;;;;17.40;84.46;97782.48;1725477;83;21106;-63
2021/06/19 03:20:28;;;;;;;1.45;1.25;;;;;;;17.41;83.27;97778.37;1725389;83;21046;-63
2021/06/19 03:22:59;;;;;;;1.42;1.30;;;;;;;17.48;82.83;97779.23;1725621;83;21067;-68
2021/06/19 03:25:33;;;;;;;2.15;1.35;;;;;;;17.56;82.57;97779.09;1725406;83;21090;-61
2021/06/19 03:28:03;;;;;;;1.62;1.35;;;;;;;17.64;82.45;97774.22;1725611;83;21022;-63
2021/06/19 03:30:33;;;;;;;2.37;1.30;;;;;;;17.71;82.46;97767.69;1725486;83;21041;-63
2021/06/19 03:33:00;;;;;;;4.17;1.17;;;;;;;17.75;82.34;97772.38;1725643;83;21567;-63
2021/06/19 03:35:27;;;;;;;2.05;1.30;;;;;;;17.78;82.26;97763.31;1725360;83;21035;-63
2021/06/19 03:37:56;;;;;;;2.20;1.00;;;;;;;17.75;82.50;97759.73;1725769;83;21045;-63
2021/06/19 03:40:26;;;;;;;3.05;1.67;;;;;;;17.71;83.65;97757.19;1725699;83;21051;-63
2021/06/19 03:42:54;;;;;;;2.27;1.37;;;;;;;17.72;83.28;97753.56;1725644;83;21019;-63
2021/06/19 03:45:25;;;;;;;1.27;1.15;;;;;;;17.70;83.87;97754.27;1725491;83;21574;-64
2021/06/19 03:47:54;;;;;;;4.35;1.37;;;;;;;17.75;83.37;97753.98;1725778;83;21110;-63
2021/06/19 03:50:24;;;;;;;2.02;1.65;;;;;;;17.74;83.19;97756.83;1725744;83;21083;-61
2021/06/19 03:52:53;;;;;;;3.10;1.70;;;;;;;17.68;83.17;97760.20;1725803;83;21163;-61
2021/06/19 03:55:20;;;;;;;2.00;1.42;;;;;;;17.65;83.59;97760.59;1725647;83;21070;-61
2021/06/19 03:57:48;;;;;;;2.27;1.42;;;;;;;17.62;83.48;97760.48;1725923;83;21097;-61
2021/06/19 04:00:20;;;;;;;2.92;1.22;;;;;;;17.66;82.92;97758.28;1725410;83;21103;-64
2021/06/19 04:02:47;;;;;;;3.65;2.00;;;;;;;17.63;83.75;97757.33;1725560;83;21058;-65
2021/06/19 04:05:15;;;;;;;1.87;1.22;;;;;;;17.67;83.26;97753.32;1725866;83;21071;-63
2021/06/19 04:07:44;;;;;;;2.15;1.65;;;;;;;17.70;83.13;97747.21;1725474;83;21074;-62
2021/06/19 04:10:13;;;;;;;2.25;1.52;;;;;;;17.75;83.21;97750.55;1725638;83;21194;-63
2021/06/19 04:12:40;;;;;;;6.72;1.62;;;;;;;17.82;82.67;97744.33;1720924;83;21070;-65
2021/06/19 04:15:09;;;;;;;2.77;1.50;;;;;;;17.90;82.57;97743.36;1733638;83;21554;-64
2021/06/19 04:17:37;;;;;;;1.40;1.10;;;;;;;18.05;82.22;97747.20;1733886;83;21046;-64
2021/06/19 04:20:10;;;;;;;1.77;1.45;;;;;;;18.14;81.64;97740.25;1733775;83;21550;-63
2021/06/19 04:22:37;;;;;;;2.42;1.20;;;;;;;18.27;81.41;97741.63;1733957;83;21034;-62
2021/06/19 04:25:06;;;;;;;1.85;1.27;;;;;;;18.41;80.97;97742.47;1733823;83;21153;-63
2021/06/19 04:27:44;;;;;;;2.77;1.25;;;;;;;18.45;80.05;97751.09;1734093;83;21129;-65
2021/06/19 04:30:14;;;;;;;2.02;1.65;;;;;;;18.46;79.52;97749.28;1720504;83;21047;-65
2021/06/19 04:32:42;;;;;;;2.40;1.27;;;;;;;18.41;79.80;97755.63;1720826;83;21455;-64
2021/06/19 04:35:12;;;;;;;2.55;1.37;;;;;;;18.43;79.98;97758.38;1720843;83;21147;-65
2021/06/19 04:37:40;;;;;;;2.35;1.80;;;;;;;18.53;79.78;97762.47;1734037;83;21078;-62
2021/06/19 04:42:40;;;;;;;2.40;1.57;;;;;;;18.72;79.52;97763.02;1720733;83;21058;-63
2021/06/19 04:45:11;;;;;;;2.58;1.70;;;;;;;18.87;78.97;97757.12;1733875;83;21074;-63
2021/06/19 04:47:39;;;;;;;4.50;1.95;;;;;;;18.97;78.43;97761.47;1733882;83;21023;-63
2021/06/19 04:50:09;;;;;;;1.98;1.60;;;;;;;19.07;78.13;97744.77;1720640;83;21043;-63
2021/06/19 04:52:43;;;;;;;2.20;1.62;;;;;;;19.17;77.60;97746.52;1733926;83;21094;-63
2021/06/19 04:55:13;;;;;;;2.12;1.70;;;;;;;19.27;77.27;97741.64;1720993;83;21094;-63
2021/06/19 04:57:40;;;;;;;2.40;1.62;;;;;;;19.31;76.83;97727.56;1733948;83;21131;-63
2021/06/19 05:00:11;;;;;;;2.17;1.80;;;;;;;19.36;76.99;97723.83;1720708;83;21039;-63
2021/06/19 05:02:39;;;;;;;2.65;1.50;;;;;;;19.41;76.67;97735.34;1733919;83;21582;-63
2021/06/19 05:05:08;;;;;;;5.05;1.65;;;;;;;19.48;76.67;97738.53;1733764;83;21091;-63
2021/06/19 05:07:35;;;;;;;2.17;1.70;;;;;;;19.56;76.07;97742.27;1733833;83;21126;-63
2021/06/19 05:10:06;;;;;;;3.35;1.77;;;;;;;19.60;75.78;97732.95;1720443;83;21035;-63
2021/06/19 05:12:35;;;;;;;2.00;1.70;;;;;;;19.65;75.55;97738.42;1694845;83;21097;-63
2021/06/19 05:15:05;;;;;;;3.20;1.77;;;;;;;19.69;75.38;97740.41;1723654;83;20999;-63
2021/06/19 05:17:32;;;;;;;2.42;2.02;;;;;;;19.71;75.09;97740.22;1723765;83;21133;-63
2021/06/19 05:19:59;;;;;;;1.90;1.67;;;;;;;19.71;75.11;97744.98;1723612;83;21031;-63
2021/06/19 05:22:27;;;;;;;2.98;1.87;;;;;;;19.77;74.90;97748.61;1723518;83;21073;-63
2021/06/19 05:24:54;;;;;;;5.78;1.65;;;;;;;19.85;74.66;97742.61;1723732;83;21110;-63
2021/06/19 05:27:21;;;;;;;2.50;1.80;;;;;;;20.01;74.61;97749.77;1723570;83;21087;-64
2021/06/19 05:29:47;;;;;;;2.58;1.72;;;;;;;20.05;71.24;97744.38;1723405;83;21130;-64
2021/06/19 05:32:14;;;;;;;3.50;1.80;;;;;;;20.13;71.23;97750.24;1723581;83;21548;-64
2021/06/19 05:34:42;;;;;;;2.55;1.37;;;;;;;20.26;71.53;97750.71;1723344;83;21487;-62
2021/06/19 05:37:10;;;;;;;4.17;1.55;;;;;;;20.35;69.33;97748.15;1723676;83;21483;-66
2021/06/19 05:39:37;;;;;;;2.95;1.05;;;;;;;20.47;70.23;97762.80;1723283;83;21039;-64
2021/06/19 05:42:05;;;;;;;3.37;1.20;;;;;;;20.60;68.11;97766.71;1723426;83;21035;-70
2021/06/19 05:44:32;;;;;;;2.08;1.50;;;;;;;20.71;66.57;97770.00;1723449;83;21027;-66
2021/06/19 05:46:59;;;;;;;2.52;1.70;;;;;;;20.87;67.72;97761.59;1723439;83;21030;-69
2021/06/19 05:49:26;;;;;;;2.35;1.30;;;;;;;21.03;67.92;97769.00;1723267;83;21050;-67
2021/06/19 05:51:53;;;;;;;2.25;1.60;;;;;;;21.18;65.70;97764.25;1723341;83;21042;-65
2021/06/19 05:54:20;;;;;;;1.75;1.27;;;;;;;21.32;66.86;97764.97;1723633;83;21122;-64
2021/06/19 05:56:46;;;;;;;2.75;1.42;;;;;;;21.50;66.08;97765.02;1723606;83;21122;-63
2021/06/19 05:59:13;;;;;;;17.73;10.18;;;;;;;21.66;66.02;97764.98;1723412;83;21043;-70
2021/06/19 06:01:40;;;;;;;7.50;4.60;;;;;;;21.82;65.41;97767.06;1723558;83;21070;-67
2021/06/19 06:04:07;;;;;;;3.33;2.58;;;;;;;21.88;61.16;97764.04;1723471;83;21090;-66
2021/06/19 06:06:34;;;;;;;7.65;3.33;;;;;;;21.86;60.89;97764.28;1723535;83;21039;-64
2021/06/19 06:09:01;;;;;;;35.35;20.08;;;;;;;21.98;61.01;97763.06;1723382;83;21039;-70
2021/06/19 06:11:28;;;;;;;17.17;9.98;;;;;;;22.10;62.50;97769.25;1716335;83;21477;-65
2021/06/19 06:13:55;;;;;;;21.27;12.47;;;;;;;22.27;60.92;97761.51;1696703;83;21198;-64
2021/06/19 06:16:22;;;;;;;19.73;11.60;;;;;;;22.42;60.75;97767.22;1696871;84;21032;-65
2021/06/19 06:18:49;;;;;;;6.00;3.37;;;;;;;22.54;60.65;97766.26;1696645;84;21481;-65
2021/06/19 06:21:16;;;;;;;3.95;2.33;;;;;;;22.66;60.46;97762.34;1696846;84;21004;-66
2021/06/19 06:23:42;;;;;;;1.85;1.32;;;;;;;22.83;58.67;97759.39;1696879;83;21477;-65
2021/06/19 06:26:09;;;;;;;3.02;2.33;;;;;;;22.83;57.49;97762.05;1696789;83;21516;-64
2021/06/19 06:28:38;;;;;;;2.00;1.55;;;;;;;22.82;56.69;97752.48;1696796;84;21660;-64
2021/06/19 06:31:05;;;;;;;2.22;1.80;;;;;;;22.88;55.26;97750.23;1696912;84;21513;-64
2021/06/19 06:33:32;;;;;;;1.62;1.25;;;;;;;22.73;55.41;97752.49;1681856;84;21144;-64
2021/06/19 06:36:02;;;;;;;2.12;1.42;;;;;;;22.79;55.21;97751.61;1683070;84;21031;-64
2021/06/19 06:38:28;;;;;;;1.82;1.50;;;;;;;22.97;57.03;97754.70;1686741;84;21698;-64
2021/06/19 06:40:56;;;;;;;3.17;2.02;;;;;;;23.08;55.01;97749.44;1684127;84;21505;-64
2021/06/19 06:43:23;;;;;;;5.17;1.60;;;;;;;23.16;55.27;97749.11;1683451;83;21142;-67
2021/06/19 06:45:50;;;;;;;2.05;1.62;;;;;;;23.08;54.37;97745.97;1679952;84;21504;-63
2021/06/19 06:48:17;;;;;;;2.00;1.80;;;;;;;23.09;55.38;97751.05;1683620;84;21012;-64
2021/06/19 06:50:45;;;;;;;3.00;1.77;;;;;;;23.21;54.38;97756.89;1682397;84;21020;-64
2021/06/19 06:53:12;;;;;;;1.35;1.25;;;;;;;23.40;54.85;97758.41;1680815;84;21492;-65
2021/06/19 06:55:40;;;;;;;2.65;1.55;;;;;;;23.44;53.92;97754.30;1679386;84;21040;-64
2021/06/19 06:58:06;;;;;;;2.35;1.30;;;;;;;23.61;53.76;97762.69;1668729;84;21075;-63
2021/06/19 07:00:33;;;;;;;1.60;1.20;;;;;;;23.80;51.74;97770.52;1669187;84;21488;-64
2021/06/19 07:03:00;;;;;;;2.37;1.27;;;;;;;23.89;51.56;97767.27;1669019;84;21155;-63
2021/06/19 07:05:27;;;;;;;2.17;1.45;;;;;;;23.92;52.27;97767.34;1667903;84;21611;-64
2021/06/19 07:07:54;;;;;;;1.82;1.40;;;;;;;23.82;51.91;97776.37;1667156;84;21166;-65
2021/06/19 07:10:21;;;;;;;1.40;1.30;;;;;;;23.97;52.66;97777.52;1667908;85;21077;-63
2021/06/19 07:12:48;;;;;;;1.60;1.50;;;;;;;23.90;51.89;97769.40;1681111;84;21628;-64
2021/06/19 07:15:18;;;;;;;1.40;1.30;;;;;;;23.97;52.75;97774.05;1686794;84;21097;-64
2021/06/19 07:17:49;;;;;;;4.17;1.60;;;;;;;24.12;52.63;97774.41;1686819;84;21062;-64
2021/06/19 07:20:18;;;;;;;2.47;1.37;;;;;;;24.23;52.21;97773.61;1687665;84;21631;-63
2021/06/19 07:22:46;;;;;;;3.12;1.55;;;;;;;24.49;50.92;97773.59;1687713;84;21158;-64
2021/06/19 07:25:16;;;;;;;2.92;1.75;;;;;;;24.43;52.02;97770.05;1687495;84;21098;-65
2021/06/19 07:27:45;;;;;;;2.65;1.50;;;;;;;24.63;51.81;97780.23;1668154;84;21090;-64
2021/06/19 07:30:14;;;;;;;2.33;1.67;;;;;;;24.86;51.51;97779.38;1687448;84;21173;-64
2021/06/19 07:32:41;;;;;;;1.80;1.60;;;;;;;25.01;49.64;97775.16;1687210;84;21122;-65
2021/06/19 07:35:09;;;;;;;2.08;1.50;;;;;;;25.09;49.88;97778.45;1687426;84;20991;-64
2021/06/19 07:37:36;;;;;;;2.00;1.52;;;;;;;24.96;49.98;97778.23;1687454;84;21062;-66
2021/06/19 07:40:05;;;;;;;2.40;1.47;;;;;;;25.28;50.13;97788.63;1687460;84;21027;-63
2021/06/19 07:42:35;;;;;;;3.37;2.35;;;;;;;25.28;49.56;97779.84;1687349;84;21202;-65
2021/06/19 07:45:04;;;;;;;1.52;1.37;;;;;;;25.30;48.96;97775.08;1701535;82;21080;-63
2021/06/19 07:47:31;;;;;;;4.30;2.70;;;;;;;25.34;48.64;97778.35;1660784;85;21103;-65
2021/06/19 07:49:58;;;;;;;1.92;1.40;;;;;;;25.31;48.40;97774.85;1701266;82;21167;-64
2021/06/19 07:52:25;;;;;;;2.65;2.00;;;;;;;25.28;48.64;97782.50;1686703;84;21722;-64
2021/06/19 07:54:52;;;;;;;1.47;1.35;;;;;;;24.98;49.59;97770.81;1685707;85;21024;-62
2021/06/19 07:57:21;;;;;;;3.02;2.25;;;;;;;25.05;49.31;97774.15;1686579;85;21039;-64
2021/06/19 07:59:47;;;;;;;1.65;1.52;;;;;;;24.86;47.86;97775.41;1686713;85;21087;-63
2021/06/19 08:02:14;;;;;;;2.30;1.65;;;;;;;25.00;48.62;97770.88;1687224;84;21045;-65
2021/06/19 08:04:41;;;;;;;2.12;1.75;;;;;;;24.90;49.00;97774.66;1687334;85;21674;-66
2021/06/19 08:07:10;;;;;;;2.02;1.67;;;;;;;24.58;49.67;97770.86;1687398;85;21158;-65
2021/06/19 08:09:37;;;;;;;2.20;1.60;;;;;;;24.37;50.08;97772.30;1687336;85;21110;-64
2021/06/19 08:12:06;;;;;;;1.92;1.50;;;;;;;24.50;50.46;97772.04;1682100;85;21111;-63
2021/06/19 08:14:33;;;;;;;3.20;1.27;;;;;;;24.36;51.00;97775.98;1668489;85;21079;-64
2021/06/19 08:17:07;;;;;;;1.92;1.45;;;;;;;24.53;50.93;97765.44;1668249;85;21088;-65
2021/06/19 08:19:29;;;;;;;1.55;1.45;;;;;;;24.57;50.46;97769.23;1668426;86;21109;-64
2021/06/19 08:21:56;;;;;;;2.12;1.60;;;;;;;24.48;51.08;97765.33;1668451;86;21154;-64
2021/06/19 08:24:22;;;;;;;2.08;1.47;;;;;;;24.68;50.70;97766.25;1668616;85;21067;-65
2021/06/19 08:26:49;;;;;;;3.05;1.27;;;;;;;24.68;50.58;97761.75;1667673;85;21107;-63
2021/06/19 08:29:16;;;;;;;3.58;1.67;;;;;;;24.79;50.37;97763.54;1667432;85;21162;-64
2021/06/19 08:31:43;;;;;;;1.65;1.15;;;;;;;24.85;49.80;97761.31;1667435;85;21389;-65
2021/06/19 08:34:10;;;;;;;2.62;1.40;;;;;;;25.11;48.54;97755.91;1667538;85;21024;-63
2021/06/19 08:36:38;;;;;;;1.60;1.50;;;;;;;25.09;49.03;97751.89;1667854;85;21198;-62
2021/06/19 08:39:05;;;;;;;2.05;1.10;;;;;;;25.09;48.47;97746.05;1668391;86;21031;-65
2021/06/19 08:41:34;;;;;;;1.45;1.32;;;;;;;25.23;48.35;97750.52;1668007;86;21051;-63
2021/06/19 08:44:02;;;;;;;1.85;1.52;;;;;;;25.32;48.16;97746.42;1639823;85;21060;-63
2021/06/19 08:46:30;;;;;;;1.40;1.30;;;;;;;25.65;47.72;97750.94;1668272;85;21060;-65
2021/06/19 08:48:57;;;;;;;2.75;1.27;;;;;;;25.76;47.55;97752.16;1668605;86;21194;-67
2021/06/19 08:51:26;;;;;;;1.70;1.40;;;;;;;25.89;46.49;97745.17;1668685;86;21524;-64
2021/06/19 08:53:54;;;;;;;3.30;1.40;;;;;;;26.02;45.43;97748.02;1668724;86;21516;-63
2021/06/19 08:56:23;;;;;;;1.70;1.17;;;;;;;26.17;45.19;97748.20;1668421;86;21570;-63
2021/06/19 08:58:51;;;;;;;1.37;1.05;;;;;;;26.37;45.91;97753.01;1662431;86;21527;-63
2021/06/19 09:01:18;;;;;;;2.15;1.20;;;;;;;26.47;43.51;97749.12;1668712;85;21210;-65
2021/06/19 09:03:45;;;;;;;1.60;1.20;;;;;;;26.54;43.25;97747.06;1668473;85;21131;-64
2021/06/19 09:06:27;;;;;;;2.27;1.40;;;;;;;26.53;42.97;97751.33;1668366;86;21134;-66
2021/06/19 09:09:15;;;;;;;3.40;1.20;;;;;;;26.67;43.71;97752.53;1668444;85;21052;-64
2021/06/19 09:11:51;;;;;;;1.52;1.00;;;;;;;26.76;42.54;97743.86;1668848;84;21708;-65
2021/06/19 09:14:25;;;;;;;1.42;1.10;;;;;;;26.85;43.60;97740.22;1668301;85;21040;-64
2021/06/19 09:17:00;;;;;;;1.77;1.57;;;;;;;26.94;42.45;97745.91;1668552;85;21052;-65
2021/06/19 09:19:40;;;;;;;2.60;1.72;;;;;;;26.70;42.55;97744.84;1668066;84;21556;-66
2021/06/19 09:22:23;;;;;;;2.80;1.75;;;;;;;26.53;44.15;97749.47;1668765;86;21138;-65
2021/06/19 09:24:56;;;;;;;1.62;1.30;;;;;;;26.60;45.16;97751.93;1668947;86;21103;-68
2021/06/19 09:27:42;;;;;;;1.50;1.20;;;;;;;26.59;45.99;97748.98;1668778;86;21027;-65
2021/06/19 09:30:16;;;;;;;1.55;1.02;;;;;;;26.48;45.37;97750.73;1668513;86;21090;-65
2021/06/19 09:32:52;;;;;;;2.12;1.60;;;;;;;26.49;45.07;97751.02;1668342;86;21052;-65
2021/06/19 09:35:25;;;;;;;2.37;1.27;;;;;;;26.41;45.56;97758.11;1668465;86;21095;-65
2021/06/19 09:37:55;;;;;;;6.58;2.00;;;;;;;26.44;46.17;97760.27;1668488;85;21094;-65
2021/06/19 09:40:32;;;;;;;3.60;2.10;;;;;;;26.23;46.43;97761.06;1668330;85;21520;-64
2021/06/19 09:43:16;;;;;;;2.02;1.45;;;;;;;25.93;46.76;97756.12;1674271;84;21083;-64
2021/06/19 09:46:00;;;;;;;2.00;1.57;;;;;;;25.95;46.79;97758.81;1687697;83;21143;-65
2021/06/19 09:48:35;;;;;;;2.00;1.67;;;;;;;25.78;47.61;97760.72;1668398;85;21067;-65
2021/06/19 09:51:23;;;;;;;7.12;1.92;;;;;;;25.77;48.11;97764.94;1668651;84;21611;-65
2021/06/19 09:54:06;;;;;;;3.85;2.00;;;;;;;25.68;48.39;97762.44;1668682;85;21505;-65
2021/06/19 09:56:52;;;;;;;2.60;1.60;;;;;;;25.64;48.44;97763.97;1668469;85;21032;-64
2021/06/19 09:59:30;;;;;;;;;;;;;;;25.72;48.38;97760.91;1670974;86;21051;-65
2021/06/19 10:02:18;;;;;;;3.15;1.67;;;;;;;25.55;48.85;97757.44;1668460;86;20122;-64
2021/06/19 10:04:52;;;;;;;1.95;1.40;;;;;;;25.72;48.75;97756.91;1670185;84;21255;-65
2021/06/19 10:07:21;;;;;;;4.67;1.80;;;;;;;25.37;48.70;97758.45;1670409;84;21085;-65
2021/06/19 10:09:50;;;;;;;1.47;1.20;;;;;;;25.41;48.88;97753.73;1630103;87;21067;-66
2021/06/19 10:12:21;;;;;;;13.00;8.08;;;;;;;25.53;48.93;97756.34;1616233;87;21598;-67
2021/06/19 10:15:07;;;;;;;14.33;8.05;;;;;;;25.64;48.65;97755.44;1653649;86;21489;-63
2021/06/19 10:17:39;;;;;;;5.92;4.30;;;;;;;25.69;47.86;97758.19;1656664;85;21029;-64
2021/06/19 10:20:12;;;;;;;2.60;2.30;;;;;;;25.75;47.15;97760.41;1681503;84;21081;-64
2021/06/19 10:22:41;;;;;;;1.92;1.42;;;;;;;25.87;47.28;97756.61;1653214;85;21075;-64
2021/06/19 10:25:13;;;;;;;3.60;1.17;;;;;;;26.09;46.90;97755.28;1639178;87;21093;-66
2021/06/19 10:27:47;;;;;;;2.22;1.02;;;;;;;26.34;46.11;97756.17;1653574;85;21368;-67
2021/06/19 10:30:34;;;;;;;2.30;1.37;;;;;;;26.52;45.94;97754.51;1639133;87;21096;-66
2021/06/19 10:33:01;;;;;;;1.62;1.25;;;;;;;26.71;45.09;97757.11;1736711;82;21593;-66
2021/06/19 10:35:50;;;;;;;2.37;1.57;;;;;;;26.87;43.84;97756.77;1742532;82;21136;-67
2021/06/19 10:38:20;;;;;;;2.72;1.42;;;;;;;26.95;43.54;97744.86;1742254;82;21490;-67
2021/06/19 10:40:55;;;;;;;1.65;1.30;;;;;;;27.15;43.07;97733.86;1726565;82;21121;-66
2021/06/19 10:43:22;;;;;;;1.70;1.52;;;;;;;27.35;41.84;97737.99;1718682;82;21568;-66
2021/06/19 10:45:55;;;;;;;2.02;1.45;;;;;;;26.59;42.89;97737.00;1728954;82;21070;-67
2021/06/19 10:48:36;;;;;;;1.65;1.25;;;;;;;26.44;43.62;97744.30;1742377;82;21507;-66
2021/06/19 10:51:22;;;;;;;1.62;1.10;;;;;;;27.03;44.21;97735.88;1742525;82;21127;-66
2021/06/19 10:54:28;;;;;;;3.55;1.40;;;;;;;27.48;43.08;97727.45;1742636;82;21078;-66
2021/06/19 10:56:59;;;;;;;1.62;1.22;;;;;;;27.71;41.38;97731.08;1741930;82;21111;-66
2021/06/19 10:59:33;;;;;;;1.55;1.20;;;;;;;28.17;41.27;97724.13;1742736;82;21004;-66
2021/06/19 11:02:03;;;;;;;1.50;1.20;;;;;;;28.59;39.91;97720.02;1742012;82;21040;-67
2021/06/19 11:04:41;;;;;;;1.40;1.00;;;;;;;29.14;38.95;97723.86;1742766;82;21629;-67
2021/06/19 11:07:12;;;;;;;1.57;1.47;;;;;;;29.74;38.55;97720.33;1742547;82;21150;-66
2021/06/19 11:09:42;;;;;;;1.15;1.00;;;;;;;29.94;36.17;97722.19;1739017;82;21579;-65
2021/06/19 11:12:28;;;;;;;1.15;1.00;;;;;;;29.52;36.28;97715.30;1742483;82;21134;-67
2021/06/19 11:15:05;;;;;;;;;;;;;;;30.21;36.03;97715.93;1744938;82;21182;-67
2021/06/19 11:17:38;;;;;;;2.52;1.00;;;;;;;30.62;34.60;97709.30;1742254;82;20142;-65
2021/06/19 11:20:16;;;;;;;1.40;1.10;;;;;;;31.19;37.24;97706.53;1742729;82;21582;-65
2021/06/19 11:22:56;;;;;;;0.80;0.78;;;;;;;31.59;33.64;97705.93;1742600;82;21572;-65
2021/06/19 11:26:03;;;;;;;5.67;3.60;;;;;;;31.81;32.08;97690.11;1742526;82;21057;-67
2021/06/19 11:28:21;;;;;;;8.38;5.33;;;;;;;31.95;35.53;97689.67;1740882;81;21520;-67
2021/06/19 11:30:56;;;;;;;26.85;17.42;;;;;;;32.06;31.80;97689.83;1742288;82;21524;-69
2021/06/19 11:33:27;;;;;;;6.40;4.28;;;;;;;31.90;31.75;97691.90;1744261;81;21000;-68
2021/06/19 11:36:09;;;;;;;5.67;3.35;;;;;;;32.02;31.31;97685.55;1745495;82;20999;-68
2021/06/19 11:38:50;;;;;;;3.70;3.00;;;;;;;30.52;33.42;97689.28;1745517;82;21153;-68
2021/06/19 11:41:21;;;;;;;1.80;1.30;;;;;;;30.47;33.76;97689.83;1744960;82;21103;-63
2021/06/19 11:43:49;;;;;;;1.35;1.10;;;;;;;30.44;33.37;97672.98;1745096;82;21078;-65
2021/06/19 11:46:24;;;;;;;1.20;1.10;;;;;;;31.14;32.57;97670.34;1745394;82;21476;-62
2021/06/19 11:48:56;;;;;;;2.33;1.37;;;;;;;31.88;31.08;97663.70;1725825;82;21106;-62